ADDS METAR Data INFO
IDs: Format: Raw Decoded Include TAF

Data at: 0753 UTC 17 Oct 2017

KBPK 170653Z AUTO 00000KT 10SM CLR 06/04 A3030 RMK AO2 SLP258 T00610039
KBPK 170553Z AUTO 00000KT 10SM CLR 07/04 A3030 RMK AO2 SLP257 T00720044 10139 20072 402000050 56005
KBPK 170453Z AUTO 00000KT 10SM CLR 09/03 A3030 RMK AO2 SLP259 T00940033
KBPK 170353Z AUTO 00000KT 10SM CLR 10/03 A3031 RMK AO2 SLP261 T01000028
KBPK 170253Z AUTO 00000KT 10SM CLR 09/04 A3031 RMK AO2 SLP264 T00940044 53009
KBPK 170153Z AUTO 00000KT 10SM CLR 11/03 A3030 RMK AO2 SLP258 T01110028
KBPK 170053Z AUTO 00000KT 10SM CLR 12/03 A3030 RMK AO2 SLP260 T01170028
KBPK 162353Z AUTO 00000KT 10SM CLR 14/03 A3029 RMK AO2 SLP256 T01390033 10200 20139 56006
KBPK 162253Z AUTO 15003KT 10SM CLR 18/02 A3029 RMK AO2 SLP255 T01780022
KBPK 162153Z AUTO 00000KT 10SM CLR 19/01 A3029 RMK AO2 SLP256 T01940011
KBPK 162053Z AUTO 00000KT 10SM CLR 19/02 A3030 RMK AO2 SLP260 T01890017 56030
KBPK 161953Z AUTO 09006KT 10SM CLR 19/02 A3033 RMK AO2 SLP268 T01890017
KBPK 161853Z AUTO 08007KT 10SM CLR 18/02 A3036 RMK AO2 SLP280 T01830022
KBPK 161753Z AUTO 09006KT 10SM CLR 18/02 A3040 RMK AO2 SLP291 T01780022 10183 20050 58009
KBPK 161653Z AUTO VRB03KT 10SM CLR 17/02 A3042 RMK AO2 SLP298 T01670022
KBPK 161553Z AUTO VRB04KT 10SM CLR 16/04 A3042 RMK AO2 SLP301 T01560044
KBPK 161453Z AUTO VRB03KT 10SM CLR 13/06 A3042 RMK AO2 SLP302 T01280056 53013
KBPK 161353Z AUTO 00000KT 10SM CLR 10/07 A3041 RMK AO2 SLP298 T01000067
KBPK 161253Z AUTO 00000KT 10SM CLR 06/06 A3039 RMK AO2 SLP291 T00610061
KBPK 161153Z AUTO 00000KT 10SM CLR 06/05 A3038 RMK AO2 SLP288 70010 T00560050 10089 20056 53009
KBPK 161053Z AUTO 00000KT 10SM CLR 06/06 A3037 RMK AO2 SLP285 T00560056
KBPK 160953Z AUTO 00000KT 10SM CLR 06/06 A3036 RMK AO2 SLP281 T00610056
KBPK 160853Z AUTO 00000KT 10SM CLR 07/06 A3036 RMK AO2 SLP278 T00670061 50004
KBPK 160753Z AUTO 00000KT 10SM CLR 07/06 A3036 RMK AO2 SLP278 T00720061
KBPK 160653Z AUTO 00000KT 10SM CLR 08/06 A3035 RMK AO2 SLP276 T00830061
KBPK 160553Z AUTO 00000KT 10SM CLR 08/06 A3035 RMK AO2 SLP274 T00780061 10150 20078 402500078 50005
KBPK 160453Z AUTO 00000KT 10SM CLR 08/07 A3035 RMK AO2 SLP276 T00830067
KBPK 160353Z AUTO 36003KT 10SM CLR 11/06 A3034 RMK AO2 SLP273 T01060061
KBPK 160253Z AUTO VRB03KT 10SM CLR 11/06 A3033 RMK AO2 SLP270 T01060061 51024
KBPK 160153Z AUTO 00000KT 10SM CLR 11/06 A3031 RMK AO2 SLP264 T01110061
KBPK 160053Z AUTO 36004KT 10SM CLR 13/06 A3030 RMK AO2 SLP256 T01330056
KBPK 152353Z AUTO VRB06KT 10SM CLR 15/06 A3026 RMK AO2 SLP242 T01500056 10206 20150 53014
KBPK 152253Z AUTO 01006KT 10SM CLR 18/04 A3024 RMK AO2 SLP235 T01780044
KBPK 152153Z AUTO 35007KT 310V020 10SM CLR 19/04 A3022 RMK AO2 SLP228 T01940039
KBPK 152053Z AUTO VRB06KT 10SM CLR 19/05 A3021 RMK AO2 SLP224 T01940050 55008